14:56
Airports
History
Links
Donate
Help keep this website running!
PayPal
Bitcoin
Information on this page is community maintained and may be outdated or inaccurate and is intended for reference only or PC simulator navigating!
Always use approved charts for navigating.
SNDR
DOMINGOS REGO
DOMINGOS REGO (SNDR)
Timon, Maranhão, Brazil
(U)
Lat/Lng:5° 4' 47.25" S / 42° 52' 25.18" W
-5.079791 / -42.873661
Elevation:373'ft 114mMSL
ID / ICAO:SNDR
Runways:1
Longest:(02-20) 1,722.0m 5,650ft Asphalt
Distance To
Airport ID:
Nearby WeatherUpdated 03-26-17 14:00 GMT
Nearby weather at SBTE, Senador Petronio Portella located 3.7 nautical miles from SNDR
Altimeter: 29.91
Visibility: 6.2 statute miles
Wind: 4 knots (280°)
Temp: 29°c 84°f
Humidity: 70.1%

METAR: SBTE 261400Z 28004KT 9999 BKN025 29/23 Q1013

(Powered by phpweather)
Runway 02 / 20
Dimensions:1722 x 29.9m 5650' x 98'ft
Surface:Asphalt
Edge Lights:Low intensity
Runway 02 [A]Runway 20 [B]
Heading:355°TH 175°TH
Lat:
Lng:
5° 5' 15.06"S
42° 52' 22.81"W
5° 4' 19.43"S
42° 52' 27.55"W
Google Map
Nearby Airports
(C) Senador Petronio Portella 3.7 NM
SBTE (WX) ENE 68°
(U) Tambori 12.0 NM
SNTC ESE 117°
4 Nossa Senhora de Fatima 12.0 NM
SNNF ENE 74°
4 Tambori 13.1 NM
SNWQ ESE 115°
(C) Caxias 36.0 NM
SNXS WNW 294°
(U) Campo Maior 45.0 NM
SDYX ENE 69°
4 Fazenda Canabrava 46.7 NM
SNPF SW 220°
VFR Chart
Flight Planning at SkyVector.com